sensor_id;sensor_type;location;lat;lon;timestamp;P1;durP1;ratioP1;P2;durP2;ratioP2
75682;SDS011;64295;44.772;39.872;2023-03-01T00:01:59;19.50;;;8.25;;
75682;SDS011;64295;44.772;39.872;2023-03-01T00:04:25;22.85;;;9.80;;
75682;SDS011;64295;44.772;39.872;2023-03-01T00:06:51;23.52;;;8.43;;
75682;SDS011;64295;44.772;39.872;2023-03-01T00:09:17;20.50;;;7.68;;
75682;SDS011;64295;44.772;39.872;2023-03-01T00:11:44;19.83;;;7.47;;
75682;SDS011;64295;44.772;39.872;2023-03-01T00:14:10;25.00;;;9.00;;
75682;SDS011;64295;44.772;39.872;2023-03-01T00:16:37;16.45;;;7.00;;
75682;SDS011;64295;44.772;39.872;2023-03-01T00:19:05;24.08;;;9.60;;
75682;SDS011;64295;44.772;39.872;2023-03-01T00:21:33;24.25;;;10.10;;
75682;SDS011;64295;44.772;39.872;2023-03-01T00:24:00;24.20;;;8.40;;
75682;SDS011;64295;44.772;39.872;2023-03-01T00:26:27;26.52;;;10.90;;
75682;SDS011;64295;44.772;39.872;2023-03-01T00:28:53;23.70;;;9.20;;
75682;SDS011;64295;44.772;39.872;2023-03-01T00:31:21;23.45;;;9.32;;
75682;SDS011;64295;44.772;39.872;2023-03-01T00:33:48;19.42;;;8.35;;
75682;SDS011;64295;44.772;39.872;2023-03-01T00:36:17;24.08;;;8.75;;
75682;SDS011;64295;44.772;39.872;2023-03-01T00:38:43;21.92;;;9.25;;
75682;SDS011;64295;44.772;39.872;2023-03-01T00:41:11;22.23;;;7.95;;
75682;SDS011;64295;44.772;39.872;2023-03-01T00:43:41;28.90;;;11.55;;
75682;SDS011;64295;44.772;39.872;2023-03-01T00:46:10;21.75;;;8.98;;
75682;SDS011;64295;44.772;39.872;2023-03-01T00:51:10;29.52;;;11.13;;
75682;SDS011;64295;44.772;39.872;2023-03-01T00:53:38;29.73;;;11.40;;
75682;SDS011;64295;44.772;39.872;2023-03-01T00:56:05;29.20;;;10.38;;
75682;SDS011;64295;44.772;39.872;2023-03-01T00:58:32;33.17;;;12.85;;
75682;SDS011;64295;44.772;39.872;2023-03-01T01:00:59;33.72;;;13.63;;
75682;SDS011;64295;44.772;39.872;2023-03-01T01:03:25;30.00;;;11.82;;
75682;SDS011;64295;44.772;39.872;2023-03-01T01:05:51;33.03;;;12.38;;
75682;SDS011;64295;44.772;39.872;2023-03-01T01:08:18;28.98;;;11.77;;
75682;SDS011;64295;44.772;39.872;2023-03-01T01:10:45;32.17;;;12.07;;
75682;SDS011;64295;44.772;39.872;2023-03-01T01:13:12;32.03;;;13.57;;
75682;SDS011;64295;44.772;39.872;2023-03-01T01:15:38;34.10;;;14.05;;
75682;SDS011;64295;44.772;39.872;2023-03-01T01:18:05;34.85;;;13.57;;
75682;SDS011;64295;44.772;39.872;2023-03-01T01:20:31;34.50;;;11.85;;
75682;SDS011;64295;44.772;39.872;2023-03-01T01:22:57;32.42;;;13.27;;
75682;SDS011;64295;44.772;39.872;2023-03-01T01:25:23;26.67;;;11.23;;
75682;SDS011;64295;44.772;39.872;2023-03-01T01:27:53;28.35;;;11.63;;
75682;SDS011;64295;44.772;39.872;2023-03-01T01:30:19;31.88;;;12.23;;
75682;SDS011;64295;44.772;39.872;2023-03-01T01:32:44;30.85;;;12.32;;
75682;SDS011;64295;44.772;39.872;2023-03-01T01:35:10;32.35;;;13.20;;
75682;SDS011;64295;44.772;39.872;2023-03-01T01:37:36;27.15;;;10.45;;
75682;SDS011;64295;44.772;39.872;2023-03-01T01:40:02;25.80;;;10.40;;
75682;SDS011;64295;44.772;39.872;2023-03-01T01:42:31;26.90;;;10.75;;
75682;SDS011;64295;44.772;39.872;2023-03-01T01:50:17;23.20;;;10.40;;
75682;SDS011;64295;44.772;39.872;2023-03-01T01:52:44;23.83;;;10.20;;
75682;SDS011;64295;44.772;39.872;2023-03-01T01:55:20;22.02;;;9.07;;
75682;SDS011;64295;44.772;39.872;2023-03-01T01:57:49;25.85;;;10.85;;
75682;SDS011;64295;44.772;39.872;2023-03-01T02:00:20;26.98;;;10.50;;
75682;SDS011;64295;44.772;39.872;2023-03-01T02:02:49;22.23;;;10.13;;
75682;SDS011;64295;44.772;39.872;2023-03-01T02:08:03;22.63;;;9.95;;
75682;SDS011;64295;44.772;39.872;2023-03-01T02:10:30;27.17;;;9.35;;
75682;SDS011;64295;44.772;39.872;2023-03-01T02:12:58;26.67;;;10.40;;
75682;SDS011;64295;44.772;39.872;2023-03-01T02:15:26;27.25;;;10.57;;
75682;SDS011;64295;44.772;39.872;2023-03-01T02:17:52;24.67;;;9.82;;
75682;SDS011;64295;44.772;39.872;2023-03-01T02:20:40;22.58;;;8.10;;
75682;SDS011;64295;44.772;39.872;2023-03-01T02:23:14;23.73;;;9.75;;
75682;SDS011;64295;44.772;39.872;2023-03-01T02:28:34;24.83;;;9.93;;
75682;SDS011;64295;44.772;39.872;2023-03-01T02:31:02;27.10;;;12.07;;
75682;SDS011;64295;44.772;39.872;2023-03-01T02:33:48;20.50;;;9.13;;
75682;SDS011;64295;44.772;39.872;2023-03-01T02:36:18;22.13;;;9.70;;
75682;SDS011;64295;44.772;39.872;2023-03-01T02:38:49;24.85;;;8.90;;
75682;SDS011;64295;44.772;39.872;2023-03-01T02:41:17;18.73;;;7.97;;
75682;SDS011;64295;44.772;39.872;2023-03-01T02:43:45;25.65;;;9.13;;
75682;SDS011;64295;44.772;39.872;2023-03-01T02:46:22;21.23;;;9.10;;
75682;SDS011;64295;44.772;39.872;2023-03-01T02:48:51;22.58;;;8.68;;
75682;SDS011;64295;44.772;39.872;2023-03-01T02:54:08;28.88;;;10.27;;
75682;SDS011;64295;44.772;39.872;2023-03-01T02:56:48;22.25;;;8.68;;
75682;SDS011;64295;44.772;39.872;2023-03-01T02:59:18;22.55;;;9.48;;
75682;SDS011;64295;44.772;39.872;2023-03-01T03:01:47;22.25;;;9.70;;
75682;SDS011;64295;44.772;39.872;2023-03-01T03:04:14;23.45;;;7.65;;
75682;SDS011;64295;44.772;39.872;2023-03-01T03:06:45;21.40;;;8.25;;
75682;SDS011;64295;44.772;39.872;2023-03-01T03:09:14;20.83;;;8.82;;
75682;SDS011;64295;44.772;39.872;2023-03-01T03:11:41;21.48;;;8.93;;
75682;SDS011;64295;44.772;39.872;2023-03-01T03:14:09;19.77;;;7.38;;
75682;SDS011;64295;44.772;39.872;2023-03-01T03:16:40;16.95;;;7.75;;
75682;SDS011;64295;44.772;39.872;2023-03-01T03:19:07;17.35;;;7.57;;
75682;SDS011;64295;44.772;39.872;2023-03-01T03:21:33;19.83;;;8.70;;
75682;SDS011;64295;44.772;39.872;2023-03-01T03:24:00;14.90;;;6.50;;
75682;SDS011;64295;44.772;39.872;2023-03-01T03:26:26;17.35;;;7.45;;
75682;SDS011;64295;44.772;39.872;2023-03-01T03:28:51;16.38;;;7.10;;
75682;SDS011;64295;44.772;39.872;2023-03-01T03:31:17;17.52;;;6.97;;
75682;SDS011;64295;44.772;39.872;2023-03-01T03:33:46;12.30;;;6.32;;
75682;SDS011;64295;44.772;39.872;2023-03-01T03:36:15;20.38;;;7.78;;
75682;SDS011;64295;44.772;39.872;2023-03-01T03:38:45;19.83;;;7.70;;
75682;SDS011;64295;44.772;39.872;2023-03-01T03:41:19;16.25;;;6.22;;
75682;SDS011;64295;44.772;39.872;2023-03-01T03:43:44;18.33;;;7.05;;
75682;SDS011;64295;44.772;39.872;2023-03-01T03:46:11;16.92;;;7.38;;
75682;SDS011;64295;44.772;39.872;2023-03-01T03:48:38;13.77;;;5.43;;
75682;SDS011;64295;44.772;39.872;2023-03-01T03:51:13;17.08;;;7.10;;
75682;SDS011;64295;44.772;39.872;2023-03-01T03:53:43;13.63;;;5.78;;
75682;SDS011;64295;44.772;39.872;2023-03-01T03:56:09;19.20;;;7.78;;
75682;SDS011;64295;44.772;39.872;2023-03-01T03:58:35;14.65;;;6.53;;
75682;SDS011;64295;44.772;39.872;2023-03-01T04:01:02;14.98;;;6.45;;
75682;SDS011;64295;44.772;39.872;2023-03-01T04:03:28;14.82;;;6.20;;
75682;SDS011;64295;44.772;39.872;2023-03-01T04:05:56;17.48;;;6.78;;
75682;SDS011;64295;44.772;39.872;2023-03-01T04:08:23;13.70;;;6.50;;
75682;SDS011;64295;44.772;39.872;2023-03-01T04:10:50;17.70;;;7.40;;
75682;SDS011;64295;44.772;39.872;2023-03-01T04:13:21;16.17;;;6.95;;
75682;SDS011;64295;44.772;39.872;2023-03-01T04:15:53;14.00;;;5.45;;
75682;SDS011;64295;44.772;39.872;2023-03-01T04:18:20;16.90;;;6.57;;
75682;SDS011;64295;44.772;39.872;2023-03-01T04:20:47;18.67;;;7.13;;
75682;SDS011;64295;44.772;39.872;2023-03-01T04:23:14;26.90;;;8.52;;
75682;SDS011;64295;44.772;39.872;2023-03-01T04:28:22;22.35;;;8.38;;
75682;SDS011;64295;44.772;39.872;2023-03-01T04:30:50;22.92;;;8.75;;
75682;SDS011;64295;44.772;39.872;2023-03-01T04:33:17;22.52;;;8.35;;
75682;SDS011;64295;44.772;39.872;2023-03-01T04:35:43;25.67;;;12.18;;
75682;SDS011;64295;44.772;39.872;2023-03-01T04:38:09;22.60;;;11.63;;
75682;SDS011;64295;44.772;39.872;2023-03-01T04:40:35;21.33;;;9.65;;
75682;SDS011;64295;44.772;39.872;2023-03-01T04:43:02;29.23;;;14.07;;
75682;SDS011;64295;44.772;39.872;2023-03-01T04:45:28;22.98;;;8.02;;
75682;SDS011;64295;44.772;39.872;2023-03-01T04:47:59;22.15;;;8.05;;
75682;SDS011;64295;44.772;39.872;2023-03-01T04:50:25;19.17;;;7.80;;
75682;SDS011;64295;44.772;39.872;2023-03-01T04:52:51;17.27;;;7.88;;
75682;SDS011;64295;44.772;39.872;2023-03-01T04:55:18;13.65;;;5.57;;
75682;SDS011;64295;44.772;39.872;2023-03-01T04:57:44;15.82;;;6.07;;
75682;SDS011;64295;44.772;39.872;2023-03-01T05:00:11;13.80;;;6.22;;
75682;SDS011;64295;44.772;39.872;2023-03-01T05:03:00;13.98;;;5.97;;
75682;SDS011;64295;44.772;39.872;2023-03-01T05:05:38;14.98;;;6.05;;
75682;SDS011;64295;44.772;39.872;2023-03-01T05:08:05;15.23;;;6.00;;
75682;SDS011;64295;44.772;39.872;2023-03-01T05:10:34;15.25;;;6.63;;
75682;SDS011;64295;44.772;39.872;2023-03-01T05:13:00;13.45;;;5.57;;
75682;SDS011;64295;44.772;39.872;2023-03-01T05:15:28;13.23;;;6.05;;
75682;SDS011;64295;44.772;39.872;2023-03-01T05:17:56;16.80;;;6.93;;
75682;SDS011;64295;44.772;39.872;2023-03-01T05:20:25;18.85;;;7.63;;
75682;SDS011;64295;44.772;39.872;2023-03-01T05:22:51;17.52;;;7.78;;
75682;SDS011;64295;44.772;39.872;2023-03-01T05:25:19;19.27;;;7.63;;
75682;SDS011;64295;44.772;39.872;2023-03-01T05:27:46;14.93;;;6.75;;
75682;SDS011;64295;44.772;39.872;2023-03-01T05:30:13;26.98;;;11.55;;
75682;SDS011;64295;44.772;39.872;2023-03-01T05:32:49;26.52;;;10.27;;
75682;SDS011;64295;44.772;39.872;2023-03-01T05:35:21;21.25;;;9.10;;
75682;SDS011;64295;44.772;39.872;2023-03-01T05:37:47;26.25;;;10.15;;
75682;SDS011;64295;44.772;39.872;2023-03-01T05:40:15;23.35;;;10.38;;
75682;SDS011;64295;44.772;39.872;2023-03-01T05:42:54;22.65;;;10.95;;
75682;SDS011;64295;44.772;39.872;2023-03-01T05:45:22;22.00;;;9.70;;
75682;SDS011;64295;44.772;39.872;2023-03-01T05:47:49;30.40;;;10.60;;
75682;SDS011;64295;44.772;39.872;2023-03-01T05:50:17;27.50;;;11.45;;
75682;SDS011;64295;44.772;39.872;2023-03-01T05:52:49;27.70;;;12.43;;
75682;SDS011;64295;44.772;39.872;2023-03-01T05:55:17;20.25;;;8.70;;
75682;SDS011;64295;44.772;39.872;2023-03-01T05:57:44;31.98;;;11.00;;
75682;SDS011;64295;44.772;39.872;2023-03-01T06:00:11;26.95;;;12.00;;
75682;SDS011;64295;44.772;39.872;2023-03-01T06:02:38;23.05;;;11.10;;
75682;SDS011;64295;44.772;39.872;2023-03-01T06:05:06;19.25;;;9.68;;
75682;SDS011;64295;44.772;39.872;2023-03-01T06:07:33;15.23;;;8.07;;
75682;SDS011;64295;44.772;39.872;2023-03-01T06:09:59;18.10;;;8.18;;
75682;SDS011;64295;44.772;39.872;2023-03-01T06:12:25;17.92;;;8.15;;
75682;SDS011;64295;44.772;39.872;2023-03-01T06:14:51;16.58;;;7.80;;
75682;SDS011;64295;44.772;39.872;2023-03-01T06:17:16;16.35;;;7.13;;
75682;SDS011;64295;44.772;39.872;2023-03-01T06:19:42;27.58;;;10.55;;
75682;SDS011;64295;44.772;39.872;2023-03-01T06:22:08;19.83;;;8.00;;
75682;SDS011;64295;44.772;39.872;2023-03-01T06:24:34;21.52;;;8.13;;
75682;SDS011;64295;44.772;39.872;2023-03-01T06:27:00;13.70;;;5.22;;
75682;SDS011;64295;44.772;39.872;2023-03-01T06:29:26;12.55;;;6.45;;
75682;SDS011;64295;44.772;39.872;2023-03-01T06:31:51;13.63;;;7.13;;
75682;SDS011;64295;44.772;39.872;2023-03-01T06:34:17;16.15;;;8.52;;
75682;SDS011;64295;44.772;39.872;2023-03-01T06:36:44;13.55;;;6.90;;
75682;SDS011;64295;44.772;39.872;2023-03-01T06:39:10;21.42;;;8.93;;
75682;SDS011;64295;44.772;39.872;2023-03-01T06:41:35;17.05;;;7.95;;
75682;SDS011;64295;44.772;39.872;2023-03-01T06:44:01;15.20;;;7.30;;
75682;SDS011;64295;44.772;39.872;2023-03-01T06:46:27;16.17;;;7.65;;
75682;SDS011;64295;44.772;39.872;2023-03-01T06:48:53;16.77;;;6.15;;
75682;SDS011;64295;44.772;39.872;2023-03-01T06:51:19;15.57;;;6.38;;
75682;SDS011;64295;44.772;39.872;2023-03-01T06:53:45;13.65;;;6.43;;
75682;SDS011;64295;44.772;39.872;2023-03-01T06:56:11;14.80;;;6.57;;
75682;SDS011;64295;44.772;39.872;2023-03-01T06:58:37;17.08;;;6.78;;
75682;SDS011;64295;44.772;39.872;2023-03-01T07:01:06;16.38;;;7.65;;
75682;SDS011;64295;44.772;39.872;2023-03-01T07:03:33;17.98;;;7.32;;
75682;SDS011;64295;44.772;39.872;2023-03-01T07:05:59;16.77;;;7.35;;
75682;SDS011;64295;44.772;39.872;2023-03-01T07:08:25;11.68;;;5.38;;
75682;SDS011;64295;44.772;39.872;2023-03-01T07:10:54;12.70;;;5.93;;
75682;SDS011;64295;44.772;39.872;2023-03-01T07:13:28;10.38;;;5.22;;
75682;SDS011;64295;44.772;39.872;2023-03-01T07:15:54;11.77;;;5.38;;
75682;SDS011;64295;44.772;39.872;2023-03-01T07:18:21;13.80;;;4.82;;
75682;SDS011;64295;44.772;39.872;2023-03-01T07:20:47;12.35;;;6.30;;
75682;SDS011;64295;44.772;39.872;2023-03-01T07:23:13;13.35;;;5.40;;
75682;SDS011;64295;44.772;39.872;2023-03-01T07:25:38;14.32;;;6.38;;
75682;SDS011;64295;44.772;39.872;2023-03-01T07:28:04;15.32;;;6.45;;
75682;SDS011;64295;44.772;39.872;2023-03-01T07:30:30;13.10;;;5.30;;
75682;SDS011;64295;44.772;39.872;2023-03-01T07:32:57;10.85;;;4.95;;
75682;SDS011;64295;44.772;39.872;2023-03-01T07:35:27;13.23;;;6.28;;
75682;SDS011;64295;44.772;39.872;2023-03-01T07:37:53;12.13;;;5.30;;
75682;SDS011;64295;44.772;39.872;2023-03-01T07:40:19;12.02;;;5.00;;
75682;SDS011;64295;44.772;39.872;2023-03-01T07:42:45;14.85;;;5.47;;
75682;SDS011;64295;44.772;39.872;2023-03-01T07:45:11;11.23;;;5.18;;
75682;SDS011;64295;44.772;39.872;2023-03-01T07:47:38;12.93;;;5.88;;
75682;SDS011;64295;44.772;39.872;2023-03-01T07:50:05;9.90;;;4.35;;
75682;SDS011;64295;44.772;39.872;2023-03-01T07:52:31;10.55;;;5.03;;
75682;SDS011;64295;44.772;39.872;2023-03-01T07:54:58;13.57;;;5.63;;
75682;SDS011;64295;44.772;39.872;2023-03-01T07:57:23;12.52;;;5.35;;
75682;SDS011;64295;44.772;39.872;2023-03-01T07:59:49;8.52;;;4.65;;
75682;SDS011;64295;44.772;39.872;2023-03-01T08:02:15;9.45;;;4.95;;
75682;SDS011;64295;44.772;39.872;2023-03-01T08:04:41;12.02;;;5.60;;
75682;SDS011;64295;44.772;39.872;2023-03-01T08:07:08;13.27;;;5.85;;
75682;SDS011;64295;44.772;39.872;2023-03-01T08:09:36;13.38;;;5.25;;
75682;SDS011;64295;44.772;39.872;2023-03-01T08:12:03;8.48;;;4.13;;
75682;SDS011;64295;44.772;39.872;2023-03-01T08:14:30;11.05;;;5.28;;
75682;SDS011;64295;44.772;39.872;2023-03-01T08:17:09;12.40;;;4.57;;
75682;SDS011;64295;44.772;39.872;2023-03-01T08:19:35;11.05;;;6.43;;
75682;SDS011;64295;44.772;39.872;2023-03-01T08:22:02;11.32;;;4.38;;
75682;SDS011;64295;44.772;39.872;2023-03-01T08:24:28;9.20;;;5.15;;
75682;SDS011;64295;44.772;39.872;2023-03-01T08:26:54;9.50;;;4.18;;
75682;SDS011;64295;44.772;39.872;2023-03-01T08:29:20;8.10;;;3.72;;
75682;SDS011;64295;44.772;39.872;2023-03-01T08:31:47;11.65;;;4.75;;
75682;SDS011;64295;44.772;39.872;2023-03-01T08:34:14;8.27;;;4.35;;
75682;SDS011;64295;44.772;39.872;2023-03-01T08:36:42;9.02;;;4.38;;
75682;SDS011;64295;44.772;39.872;2023-03-01T08:39:10;13.68;;;5.75;;
75682;SDS011;64295;44.772;39.872;2023-03-01T08:41:38;10.27;;;4.88;;
75682;SDS011;64295;44.772;39.872;2023-03-01T08:44:05;11.05;;;4.35;;
75682;SDS011;64295;44.772;39.872;2023-03-01T08:46:33;12.48;;;5.45;;
75682;SDS011;64295;44.772;39.872;2023-03-01T08:49:08;11.93;;;4.53;;
75682;SDS011;64295;44.772;39.872;2023-03-01T08:51:36;9.43;;;4.75;;
75682;SDS011;64295;44.772;39.872;2023-03-01T08:54:03;10.85;;;5.45;;
75682;SDS011;64295;44.772;39.872;2023-03-01T08:56:33;9.65;;;4.00;;
75682;SDS011;64295;44.772;39.872;2023-03-01T08:58:59;10.80;;;5.40;;
75682;SDS011;64295;44.772;39.872;2023-03-01T09:01:25;10.50;;;4.57;;
75682;SDS011;64295;44.772;39.872;2023-03-01T09:03:58;13.25;;;6.38;;
75682;SDS011;64295;44.772;39.872;2023-03-01T09:06:24;15.38;;;5.78;;
75682;SDS011;64295;44.772;39.872;2023-03-01T09:08:50;9.38;;;6.15;;
75682;SDS011;64295;44.772;39.872;2023-03-01T09:11:18;11.90;;;5.57;;
75682;SDS011;64295;44.772;39.872;2023-03-01T09:13:46;12.30;;;4.40;;
75682;SDS011;64295;44.772;39.872;2023-03-01T09:16:13;9.88;;;5.07;;
75682;SDS011;64295;44.772;39.872;2023-03-01T09:18:43;8.85;;;4.47;;
75682;SDS011;64295;44.772;39.872;2023-03-01T09:21:10;11.82;;;4.53;;
75682;SDS011;64295;44.772;39.872;2023-03-01T09:23:38;10.20;;;4.32;;
75682;SDS011;64295;44.772;39.872;2023-03-01T09:26:12;12.02;;;5.10;;
75682;SDS011;64295;44.772;39.872;2023-03-01T09:28:41;9.48;;;5.30;;
75682;SDS011;64295;44.772;39.872;2023-03-01T09:31:09;13.90;;;5.72;;
75682;SDS011;64295;44.772;39.872;2023-03-01T09:33:38;9.95;;;5.90;;
75682;SDS011;64295;44.772;39.872;2023-03-01T09:36:06;12.93;;;7.05;;
75682;SDS011;64295;44.772;39.872;2023-03-01T09:38:37;9.90;;;5.03;;
75682;SDS011;64295;44.772;39.872;2023-03-01T09:41:08;12.18;;;5.35;;
75682;SDS011;64295;44.772;39.872;2023-03-01T09:46:21;10.75;;;5.63;;
75682;SDS011;64295;44.772;39.872;2023-03-01T09:49:01;10.90;;;5.10;;
75682;SDS011;64295;44.772;39.872;2023-03-01T09:51:31;12.38;;;5.65;;
75682;SDS011;64295;44.772;39.872;2023-03-01T09:54:00;17.60;;;6.35;;
75682;SDS011;64295;44.772;39.872;2023-03-01T09:56:39;10.85;;;5.30;;
75682;SDS011;64295;44.772;39.872;2023-03-01T09:59:22;6.47;;;3.47;;
75682;SDS011;64295;44.772;39.872;2023-03-01T10:01:58;11.25;;;4.60;;
75682;SDS011;64295;44.772;39.872;2023-03-01T10:04:42;12.38;;;4.03;;
75682;SDS011;64295;44.772;39.872;2023-03-01T10:09:39;11.68;;;4.15;;
75682;SDS011;64295;44.772;39.872;2023-03-01T10:12:11;12.43;;;4.93;;
75682;SDS011;64295;44.772;39.872;2023-03-01T10:14:47;10.32;;;4.85;;
75682;SDS011;64295;44.772;39.872;2023-03-01T10:20:16;10.20;;;4.30;;
75682;SDS011;64295;44.772;39.872;2023-03-01T10:22:44;7.85;;;3.90;;
75682;SDS011;64295;44.772;39.872;2023-03-01T10:25:16;7.47;;;4.00;;
75682;SDS011;64295;44.772;39.872;2023-03-01T10:27:58;7.95;;;4.18;;
75682;SDS011;64295;44.772;39.872;2023-03-01T10:30:40;6.68;;;3.53;;
75682;SDS011;64295;44.772;39.872;2023-03-01T10:35:55;8.18;;;4.03;;
75682;SDS011;64295;44.772;39.872;2023-03-01T10:38:21;6.80;;;2.67;;
75682;SDS011;64295;44.772;39.872;2023-03-01T10:40:51;9.55;;;3.17;;
75682;SDS011;64295;44.772;39.872;2023-03-01T10:43:25;6.47;;;3.05;;
75682;SDS011;64295;44.772;39.872;2023-03-01T10:45:57;7.30;;;3.42;;
75682;SDS011;64295;44.772;39.872;2023-03-01T10:48:24;7.10;;;2.70;;
75682;SDS011;64295;44.772;39.872;2023-03-01T10:58:29;8.40;;;2.83;;
75682;SDS011;64295;44.772;39.872;2023-03-01T11:00:59;7.93;;;3.10;;
75682;SDS011;64295;44.772;39.872;2023-03-01T11:03:31;7.20;;;3.20;;
75682;SDS011;64295;44.772;39.872;2023-03-01T11:06:06;6.07;;;3.28;;
75682;SDS011;64295;44.772;39.872;2023-03-01T11:11:32;5.90;;;3.83;;
75682;SDS011;64295;44.772;39.872;2023-03-01T11:14:19;6.25;;;3.40;;
75682;SDS011;64295;44.772;39.872;2023-03-01T11:16:47;11.38;;;3.30;;
75682;SDS011;64295;44.772;39.872;2023-03-01T11:19:22;6.45;;;3.25;;
75682;SDS011;64295;44.772;39.872;2023-03-01T11:24:43;9.63;;;3.67;;
75682;SDS011;64295;44.772;39.872;2023-03-01T11:32:50;8.00;;;3.42;;
75682;SDS011;64295;44.772;39.872;2023-03-01T11:35:48;6.10;;;2.90;;
75682;SDS011;64295;44.772;39.872;2023-03-01T11:38:23;6.00;;;2.83;;
75682;SDS011;64295;44.772;39.872;2023-03-01T11:43:59;13.98;;;2.80;;
75682;SDS011;64295;44.772;39.872;2023-03-01T11:51:25;6.68;;;3.70;;
75682;SDS011;64295;44.772;39.872;2023-03-01T11:57:26;6.50;;;2.97;;
75682;SDS011;64295;44.772;39.872;2023-03-01T12:00:07;7.50;;;4.30;;
75682;SDS011;64295;44.772;39.872;2023-03-01T12:08:36;6.15;;;3.17;;
75682;SDS011;64295;44.772;39.872;2023-03-01T12:20:05;13.27;;;4.30;;
75682;SDS011;64295;44.772;39.872;2023-03-01T12:37:08;12.77;;;5.78;;
75682;SDS011;64295;44.772;39.872;2023-03-01T12:51:08;13.40;;;5.53;;
75682;SDS011;64295;44.772;39.872;2023-03-01T12:53:42;13.35;;;5.80;;
75682;SDS011;64295;44.772;39.872;2023-03-01T12:56:15;13.85;;;6.00;;
75682;SDS011;64295;44.772;39.872;2023-03-01T13:17:57;10.68;;;5.50;;
75682;SDS011;64295;44.772;39.872;2023-03-01T13:20:44;10.38;;;5.38;;
75682;SDS011;64295;44.772;39.872;2023-03-01T13:26:18;12.50;;;5.25;;
75682;SDS011;64295;44.772;39.872;2023-03-01T13:28:46;17.08;;;6.82;;
75682;SDS011;64295;44.772;39.872;2023-03-01T13:34:04;14.93;;;5.28;;
75682;SDS011;64295;44.772;39.872;2023-03-01T13:36:49;10.88;;;5.95;;
75682;SDS011;64295;44.772;39.872;2023-03-01T13:39:39;12.10;;;5.30;;
75682;SDS011;64295;44.772;39.872;2023-03-01T13:42:28;14.95;;;5.55;;
75682;SDS011;64295;44.772;39.872;2023-03-01T13:44:56;11.73;;;5.65;;
75682;SDS011;64295;44.772;39.872;2023-03-01T13:47:22;10.38;;;6.28;;
75682;SDS011;64295;44.772;39.872;2023-03-01T13:49:58;14.80;;;5.88;;
75682;SDS011;64295;44.772;39.872;2023-03-01T13:57:41;9.90;;;4.15;;
75682;SDS011;64295;44.772;39.872;2023-03-01T14:03:08;10.20;;;4.82;;
75682;SDS011;64295;44.772;39.872;2023-03-01T14:05:36;12.27;;;5.10;;
75682;SDS011;64295;44.772;39.872;2023-03-01T14:08:23;10.85;;;5.28;;
75682;SDS011;64295;44.772;39.872;2023-03-01T14:10:54;11.38;;;4.80;;
75682;SDS011;64295;44.772;39.872;2023-03-01T14:13:46;9.50;;;5.82;;
75682;SDS011;64295;44.772;39.872;2023-03-01T14:19:19;9.10;;;4.18;;
75682;SDS011;64295;44.772;39.872;2023-03-01T14:24:50;11.27;;;5.70;;
75682;SDS011;64295;44.772;39.872;2023-03-01T14:27:21;9.35;;;4.35;;
75682;SDS011;64295;44.772;39.872;2023-03-01T14:30:02;7.97;;;5.43;;
75682;SDS011;64295;44.772;39.872;2023-03-01T14:32:35;9.13;;;3.75;;
75682;SDS011;64295;44.772;39.872;2023-03-01T14:35:01;9.15;;;4.40;;
75682;SDS011;64295;44.772;39.872;2023-03-01T14:37:34;13.10;;;5.10;;
75682;SDS011;64295;44.772;39.872;2023-03-01T14:40:01;10.05;;;4.93;;
75682;SDS011;64295;44.772;39.872;2023-03-01T14:42:34;11.48;;;4.80;;
75682;SDS011;64295;44.772;39.872;2023-03-01T14:45:01;9.98;;;4.85;;
75682;SDS011;64295;44.772;39.872;2023-03-01T14:47:32;12.40;;;5.18;;
75682;SDS011;64295;44.772;39.872;2023-03-01T14:52:47;9.50;;;4.88;;
75682;SDS011;64295;44.772;39.872;2023-03-01T14:55:16;11.48;;;4.20;;
75682;SDS011;64295;44.772;39.872;2023-03-01T14:57:46;11.32;;;3.60;;
75682;SDS011;64295;44.772;39.872;2023-03-01T15:00:21;8.23;;;4.82;;
75682;SDS011;64295;44.772;39.872;2023-03-01T15:02:53;6.53;;;2.83;;
75682;SDS011;64295;44.772;39.872;2023-03-01T15:05:30;11.18;;;4.43;;
75682;SDS011;64295;44.772;39.872;2023-03-01T15:07:57;8.13;;;4.07;;
75682;SDS011;64295;44.772;39.872;2023-03-01T15:10:26;9.15;;;3.78;;
75682;SDS011;64295;44.772;39.872;2023-03-01T15:16:09;7.30;;;3.47;;
75682;SDS011;64295;44.772;39.872;2023-03-01T15:18:37;10.88;;;3.88;;
75682;SDS011;64295;44.772;39.872;2023-03-01T15:21:13;6.22;;;3.17;;
75682;SDS011;64295;44.772;39.872;2023-03-01T15:23:41;8.98;;;4.15;;
75682;SDS011;64295;44.772;39.872;2023-03-01T15:26:22;8.75;;;3.67;;
75682;SDS011;64295;44.772;39.872;2023-03-01T15:28:58;7.10;;;3.50;;
75682;SDS011;64295;44.772;39.872;2023-03-01T15:31:27;6.93;;;3.35;;
75682;SDS011;64295;44.772;39.872;2023-03-01T15:36:51;11.55;;;4.10;;
75682;SDS011;64295;44.772;39.872;2023-03-01T15:42:11;13.98;;;4.80;;
75682;SDS011;64295;44.772;39.872;2023-03-01T15:45:10;17.95;;;6.72;;
75682;SDS011;64295;44.772;39.872;2023-03-01T15:47:47;19.27;;;6.90;;
75682;SDS011;64295;44.772;39.872;2023-03-01T15:52:54;19.08;;;8.02;;
75682;SDS011;64295;44.772;39.872;2023-03-01T15:55:22;22.63;;;7.57;;
75682;SDS011;64295;44.772;39.872;2023-03-01T15:57:57;26.73;;;7.57;;
75682;SDS011;64295;44.772;39.872;2023-03-01T16:00:34;24.23;;;8.73;;
75682;SDS011;64295;44.772;39.872;2023-03-01T16:03:00;23.30;;;9.30;;
75682;SDS011;64295;44.772;39.872;2023-03-01T16:05:27;22.98;;;9.43;;
75682;SDS011;64295;44.772;39.872;2023-03-01T16:07:55;24.30;;;9.30;;
75682;SDS011;64295;44.772;39.872;2023-03-01T16:10:22;26.85;;;10.35;;
75682;SDS011;64295;44.772;39.872;2023-03-01T16:12:51;26.00;;;11.48;;
75682;SDS011;64295;44.772;39.872;2023-03-01T16:15:18;23.05;;;10.88;;
75682;SDS011;64295;44.772;39.872;2023-03-01T16:17:46;30.50;;;12.55;;
75682;SDS011;64295;44.772;39.872;2023-03-01T16:20:19;24.50;;;11.02;;
75682;SDS011;64295;44.772;39.872;2023-03-01T16:22:46;25.15;;;9.95;;
75682;SDS011;64295;44.772;39.872;2023-03-01T16:25:13;27.17;;;10.68;;
75682;SDS011;64295;44.772;39.872;2023-03-01T16:27:44;24.67;;;10.40;;
75682;SDS011;64295;44.772;39.872;2023-03-01T16:30:12;27.02;;;11.32;;
75682;SDS011;64295;44.772;39.872;2023-03-01T16:32:40;25.88;;;11.18;;
75682;SDS011;64295;44.772;39.872;2023-03-01T16:35:07;26.00;;;11.20;;
75682;SDS011;64295;44.772;39.872;2023-03-01T16:37:34;20.10;;;9.68;;
75682;SDS011;64295;44.772;39.872;2023-03-01T16:40:02;24.88;;;10.57;;
75682;SDS011;64295;44.772;39.872;2023-03-01T16:42:35;27.40;;;10.32;;
75682;SDS011;64295;44.772;39.872;2023-03-01T16:45:06;21.55;;;9.57;;
75682;SDS011;64295;44.772;39.872;2023-03-01T16:47:33;22.75;;;8.25;;
75682;SDS011;64295;44.772;39.872;2023-03-01T16:49:59;18.48;;;7.90;;
75682;SDS011;64295;44.772;39.872;2023-03-01T16:52:25;19.27;;;7.72;;
75682;SDS011;64295;44.772;39.872;2023-03-01T16:54:52;17.13;;;6.45;;
75682;SDS011;64295;44.772;39.872;2023-03-01T16:57:18;17.85;;;7.78;;
75682;SDS011;64295;44.772;39.872;2023-03-01T16:59:44;22.40;;;7.80;;
75682;SDS011;64295;44.772;39.872;2023-03-01T17:02:13;18.27;;;8.13;;
75682;SDS011;64295;44.772;39.872;2023-03-01T17:04:44;17.73;;;8.00;;
75682;SDS011;64295;44.772;39.872;2023-03-01T17:07:10;19.95;;;8.52;;
75682;SDS011;64295;44.772;39.872;2023-03-01T17:09:37;20.50;;;9.30;;